createdAt,value
2018-10-19T00:00:09.180Z,67.20
2018-10-19T00:02:38.687Z,66.90
2018-10-19T00:05:08.689Z,66.80
2018-10-19T00:07:38.644Z,66.90
2018-10-19T00:10:09.108Z,67.60
2018-10-19T00:12:39.232Z,67.60
2018-10-19T00:15:09.133Z,68.10
2018-10-19T00:17:38.990Z,68.50
2018-10-19T00:20:08.796Z,68.60
2018-10-19T00:22:38.323Z,68.40
2018-10-19T00:25:08.110Z,68.20
2018-10-19T00:27:38.093Z,69.30
2018-10-19T00:30:08.731Z,69.60
2018-10-19T00:32:38.270Z,69.20
2018-10-19T00:35:09.192Z,70.40
2018-10-19T00:37:39.268Z,69.60
2018-10-19T00:40:08.838Z,69.70
2018-10-19T00:42:38.916Z,69.40
2018-10-19T00:45:08.621Z,69.10
2018-10-19T00:47:39.375Z,69.90
2018-10-19T00:50:08.971Z,69.60
2018-10-19T00:52:39.093Z,70.10
2018-10-19T00:55:09.018Z,72.60
2018-10-19T00:57:38.552Z,70.30
2018-10-19T01:00:08.371Z,70.80
2018-10-19T01:02:37.900Z,70.50
2018-10-19T01:05:07.983Z,70.70
2018-10-19T01:07:37.839Z,71.20
2018-10-19T01:10:07.705Z,71.30
2018-10-19T01:12:37.225Z,71.10
2018-10-19T01:15:06.754Z,71.80
2018-10-19T01:17:36.542Z,71.90
2018-10-19T01:20:06.746Z,73.10
2018-10-19T01:22:36.302Z,71.90
2018-10-19T01:25:06.451Z,71.30
2018-10-19T01:27:35.932Z,71.50
2018-10-19T01:30:06.027Z,70.90
2018-10-19T01:32:35.634Z,71.00
2018-10-19T01:35:05.822Z,71.90
2018-10-19T01:37:36.537Z,71.90
2018-10-19T01:40:07.992Z,71.90
2018-10-19T01:42:37.678Z,71.90
2018-10-19T01:45:08.670Z,71.90
2018-10-19T01:47:38.531Z,72.70
2018-10-19T01:50:08.703Z,71.90
2018-10-19T01:52:39.241Z,71.20
2018-10-19T01:55:09.222Z,70.80
2018-10-19T01:57:39.225Z,71.10
2018-10-19T02:00:08.798Z,71.20
2018-10-19T02:02:38.544Z,71.30
2018-10-19T02:05:08.554Z,71.70
2018-10-19T02:07:38.246Z,71.70
2018-10-19T02:10:08.269Z,71.60
2018-10-19T02:12:37.780Z,71.60
2018-10-19T02:15:08.102Z,71.60
2018-10-19T02:17:37.605Z,71.60
2018-10-19T02:20:07.487Z,72.00
2018-10-19T02:22:37.038Z,72.10
2018-10-19T02:25:07.095Z,72.90
2018-10-19T02:27:36.617Z,72.30
2018-10-19T02:30:07.331Z,72.70
2018-10-19T02:32:37.231Z,74.90
2018-10-19T02:35:06.879Z,73.40
2018-10-19T02:37:36.377Z,74.40
2018-10-19T02:40:07.375Z,74.50
2018-10-19T02:42:37.230Z,73.50
2018-10-19T02:45:07.446Z,73.20
2018-10-19T02:47:36.907Z,73.00
2018-10-19T02:50:07.386Z,72.90
2018-10-19T02:52:37.093Z,72.60
2018-10-19T02:55:07.483Z,72.70
2018-10-19T02:57:37.024Z,72.80
2018-10-19T03:00:09.513Z,73.10
2018-10-19T03:02:39.346Z,73.10
2018-10-19T03:05:09.812Z,73.10
2018-10-19T03:07:39.591Z,73.70
2018-10-19T03:10:10.198Z,74.20
2018-10-19T03:12:39.656Z,74.10
2018-10-19T03:15:10.132Z,74.00
2018-10-19T03:17:39.575Z,74.00
2018-10-19T03:20:09.580Z,74.30
2018-10-19T03:22:39.196Z,74.30
2018-10-19T03:25:09.529Z,74.10
2018-10-19T03:27:39.309Z,74.80
2018-10-19T03:30:09.305Z,74.50
2018-10-19T03:32:38.832Z,74.10
2018-10-19T03:35:08.514Z,74.80
2018-10-19T03:37:38.241Z,73.90
2018-10-19T03:40:08.121Z,74.50
2018-10-19T03:42:37.632Z,74.70
2018-10-19T03:45:07.648Z,74.30
2018-10-19T03:47:37.261Z,73.80
2018-10-19T03:50:07.221Z,73.80
2018-10-19T03:52:36.718Z,74.00
2018-10-19T03:55:06.685Z,74.10
2018-10-19T03:57:36.497Z,74.70
2018-10-19T04:00:06.098Z,74.70
2018-10-19T04:02:35.619Z,74.10
2018-10-19T04:05:05.285Z,74.70
2018-10-19T04:07:34.816Z,74.40
2018-10-19T04:10:04.693Z,74.20
2018-10-19T04:12:34.435Z,74.30
2018-10-19T04:15:04.242Z,74.40
2018-10-19T04:17:34.044Z,74.60
2018-10-19T04:20:04.701Z,75.20
2018-10-19T04:22:34.723Z,74.60
2018-10-19T04:25:04.692Z,75.50
2018-10-19T04:27:34.252Z,76.10
2018-10-19T04:30:03.757Z,76.10
2018-10-19T04:32:33.711Z,75.60
2018-10-19T04:35:03.350Z,75.50
2018-10-19T04:37:32.856Z,75.40
2018-10-19T04:40:02.371Z,75.00
2018-10-19T04:42:31.900Z,75.90
2018-10-19T04:45:01.482Z,75.10
2018-10-19T04:47:31.304Z,74.60
2018-10-19T04:50:01.190Z,74.60
2018-10-19T04:52:30.631Z,74.60
2018-10-19T04:55:00.192Z,74.40
2018-10-19T04:57:29.826Z,74.90
2018-10-19T04:59:59.348Z,75.00
2018-10-19T05:02:28.871Z,74.80
2018-10-19T05:04:58.553Z,75.40
2018-10-19T05:07:27.964Z,75.30
2018-10-19T05:09:57.441Z,75.80
2018-10-19T05:12:27.401Z,75.10
2018-10-19T05:14:56.889Z,75.30
2018-10-19T05:17:26.435Z,75.20
2018-10-19T05:19:56.700Z,75.20
2018-10-19T05:22:26.246Z,74.70
2018-10-19T05:24:55.762Z,74.40
2018-10-19T05:27:25.254Z,74.20
2018-10-19T05:29:54.749Z,74.50
2018-10-19T05:34:49.878Z,75.00
2018-10-19T05:37:19.796Z,75.10
2018-10-19T05:39:49.332Z,75.10
2018-10-19T05:42:18.797Z,74.90
2018-10-19T05:44:48.678Z,74.50
2018-10-19T05:47:19.191Z,74.80
2018-10-19T05:49:48.697Z,74.90
2018-10-19T05:52:18.139Z,74.60
2018-10-19T05:54:47.665Z,75.30
2018-10-19T05:57:17.145Z,75.00
2018-10-19T05:59:46.676Z,75.40
2018-10-19T06:02:16.205Z,75.80
2018-10-19T06:04:45.911Z,75.70
2018-10-19T06:07:15.479Z,75.70
2018-10-19T06:09:45.009Z,76.10
2018-10-19T06:12:14.537Z,75.90
2018-10-19T06:14:44.492Z,76.20
2018-10-19T06:17:14.110Z,76.40
2018-10-19T06:19:43.588Z,76.90
2018-10-19T06:22:13.091Z,77.00
2018-10-19T06:24:42.615Z,77.20
2018-10-19T06:27:12.224Z,76.80
2018-10-19T06:29:42.963Z,76.20
2018-10-19T06:32:12.948Z,76.70
2018-10-19T06:34:42.927Z,76.70
2018-10-19T06:37:12.454Z,76.50
2018-10-19T06:39:41.988Z,76.80
2018-10-19T06:42:11.533Z,77.10
2018-10-19T06:44:41.471Z,77.00
2018-10-19T06:47:11.027Z,76.60
2018-10-19T06:49:40.479Z,76.50
2018-10-19T06:52:09.980Z,76.60
2018-10-19T06:54:39.469Z,77.00
2018-10-19T06:57:09.003Z,76.70
2018-10-19T06:59:38.504Z,76.90
2018-10-19T07:02:08.066Z,76.70
2018-10-19T07:04:37.505Z,76.60
2018-10-19T07:07:07.525Z,76.50
2018-10-19T07:09:37.027Z,76.40
2018-10-19T07:12:06.921Z,76.30
2018-10-19T07:14:36.408Z,76.10
2018-10-19T07:17:06.020Z,75.90
2018-10-19T07:19:35.522Z,75.90
2018-10-19T07:22:05.584Z,75.70
2018-10-19T07:24:35.045Z,76.10
2018-10-19T07:27:04.782Z,76.20
2018-10-19T07:29:34.294Z,76.30
2018-10-19T07:32:03.839Z,76.10
2018-10-19T07:34:33.688Z,76.00
2018-10-19T07:37:03.231Z,75.90
2018-10-19T07:39:32.818Z,75.60
2018-10-19T07:42:02.377Z,75.80
2018-10-19T07:44:32.265Z,75.70
2018-10-19T07:47:01.960Z,75.70
2018-10-19T07:49:31.690Z,75.40
2018-10-19T07:52:01.188Z,75.40
2018-10-19T07:54:31.215Z,75.20
2018-10-19T07:57:01.096Z,75.20
2018-10-19T07:59:30.600Z,75.10
2018-10-19T08:02:00.171Z,75.20
2018-10-19T08:04:29.781Z,75.30
2018-10-19T08:06:59.312Z,75.10
2018-10-19T08:09:28.808Z,75.10
2018-10-19T08:11:58.287Z,75.20
2018-10-19T08:14:27.777Z,74.90
2018-10-19T08:16:57.708Z,74.90
2018-10-19T08:19:27.159Z,74.60
2018-10-19T08:21:56.697Z,74.30
2018-10-19T08:24:26.227Z,74.50
2018-10-19T08:26:55.730Z,74.70
2018-10-19T08:29:25.284Z,73.80
2018-10-19T08:31:54.854Z,73.50
2018-10-19T08:34:24.536Z,73.60
2018-10-19T08:36:54.052Z,73.70
2018-10-19T08:39:23.652Z,73.70
2018-10-19T08:41:53.155Z,73.80
2018-10-19T08:44:23.075Z,73.80
2018-10-19T08:46:52.653Z,73.90
2018-10-19T08:49:22.651Z,74.00
2018-10-19T08:51:52.685Z,74.10
2018-10-19T08:54:22.253Z,74.10
2018-10-19T08:56:51.809Z,73.60
2018-10-19T08:59:21.284Z,73.40
2018-10-19T09:01:51.145Z,72.60
2018-10-19T09:04:20.664Z,72.40
2018-10-19T09:06:50.181Z,72.60
2018-10-19T09:09:19.655Z,72.00
2018-10-19T09:11:49.256Z,72.50
2018-10-19T09:14:29.841Z,71.80
2018-10-19T09:16:59.403Z,71.80
2018-10-19T09:19:29.177Z,71.90
2018-10-19T09:21:58.631Z,71.70
2018-10-19T09:24:28.178Z,71.70
2018-10-19T09:29:20.563Z,71.80
2018-10-19T09:31:50.073Z,71.10
2018-10-19T09:34:19.562Z,70.80
2018-10-19T09:36:49.546Z,70.50
2018-10-19T09:39:18.894Z,70.20
2018-10-19T09:41:48.416Z,69.90
2018-10-19T09:44:17.917Z,69.60
2018-10-19T09:46:47.412Z,69.60
2018-10-19T09:49:16.917Z,69.20
2018-10-19T09:51:46.456Z,69.30
2018-10-19T09:54:15.949Z,69.00
2018-10-19T09:56:45.481Z,69.10
2018-10-19T09:59:15.026Z,69.00
2018-10-19T10:01:44.917Z,69.20
2018-10-19T10:04:14.381Z,69.40
2018-10-19T10:06:43.951Z,68.90
2018-10-19T10:09:15.204Z,68.50
2018-10-19T10:11:44.707Z,65.80
2018-10-19T10:14:14.263Z,65.00
2018-10-19T10:16:43.894Z,65.70
2018-10-19T10:19:13.504Z,65.60
2018-10-19T10:21:43.127Z,64.30
2018-10-19T10:24:12.642Z,63.70
2018-10-19T10:26:42.152Z,63.40
2018-10-19T10:29:12.013Z,63.60
2018-10-19T10:31:41.535Z,63.70
2018-10-19T10:34:11.251Z,61.50
2018-10-19T10:36:40.745Z,60.40
2018-10-19T10:39:12.860Z,59.90
2018-10-19T10:41:42.344Z,58.80
2018-10-19T10:44:12.188Z,59.40
2018-10-19T10:46:41.721Z,59.50
2018-10-19T10:49:11.409Z,59.20
2018-10-19T10:51:41.378Z,58.10
2018-10-19T10:54:10.879Z,56.30
2018-10-19T10:56:40.793Z,57.90
2018-10-19T10:59:10.681Z,56.00
2018-10-19T11:01:40.239Z,55.60
2018-10-19T11:04:10.230Z,56.10
2018-10-19T11:06:39.748Z,54.10
2018-10-19T11:09:10.951Z,54.40
2018-10-19T11:11:40.465Z,53.90
2018-10-19T11:14:09.977Z,53.50
2018-10-19T11:16:39.523Z,53.00
2018-10-19T11:19:09.011Z,52.00
2018-10-19T11:21:38.564Z,51.90
2018-10-19T11:24:08.102Z,51.60
2018-10-19T11:26:37.677Z,50.60
2018-10-19T11:29:07.534Z,50.90
2018-10-19T11:31:37.134Z,50.10
2018-10-19T11:34:06.784Z,50.30
2018-10-19T11:36:36.311Z,49.50
2018-10-19T11:39:07.394Z,48.00
2018-10-19T11:41:36.895Z,47.10
2018-10-19T11:44:06.879Z,47.50
2018-10-19T11:46:36.413Z,47.40
2018-10-19T11:49:06.050Z,46.80
2018-10-19T11:51:35.966Z,45.90
2018-10-19T11:54:05.826Z,45.70
2018-10-19T11:56:35.391Z,45.80
2018-10-19T11:59:05.737Z,45.60
2018-10-19T12:01:35.755Z,45.10
2018-10-19T12:04:05.310Z,45.10
2018-10-19T12:06:34.827Z,44.70
2018-10-19T12:09:06.681Z,44.20
2018-10-19T12:11:36.218Z,42.80
2018-10-19T12:14:05.793Z,42.30
2018-10-19T12:16:35.368Z,42.40
2018-10-19T12:19:04.977Z,42.60
2018-10-19T12:21:34.886Z,42.20
2018-10-19T12:24:04.458Z,42.20
2018-10-19T12:26:33.984Z,41.20
2018-10-19T12:29:03.574Z,41.40
2018-10-19T12:31:33.360Z,40.60
2018-10-19T12:34:02.878Z,40.80
2018-10-19T12:36:32.416Z,40.70
2018-10-19T12:39:04.300Z,40.20
2018-10-19T12:41:33.757Z,39.70
2018-10-19T12:44:03.276Z,39.50
2018-10-19T12:46:44.947Z,39.40
2018-10-19T12:49:16.927Z,39.10
2018-10-19T12:51:46.431Z,39.10
2018-10-19T12:54:16.123Z,38.70
2018-10-19T12:56:45.632Z,38.30
2018-10-19T12:59:15.119Z,38.40
2018-10-19T13:01:45.117Z,38.00
2018-10-19T13:04:15.007Z,37.10
2018-10-19T13:06:44.481Z,37.60
2018-10-19T13:09:14.470Z,37.30
2018-10-19T13:11:43.986Z,36.80
2018-10-19T13:14:13.523Z,33.50
2018-10-19T13:16:43.039Z,35.10
2018-10-19T13:19:12.631Z,35.20
2018-10-19T13:21:42.491Z,35.40
2018-10-19T13:24:12.379Z,35.50
2018-10-19T13:26:42.138Z,35.70
2018-10-19T13:29:12.636Z,36.00
2018-10-19T13:31:42.153Z,36.20
2018-10-19T13:34:11.751Z,36.30
2018-10-19T13:36:41.268Z,36.30
2018-10-19T13:39:12.435Z,36.50
2018-10-19T13:41:42.239Z,37.00
2018-10-19T13:44:11.995Z,37.00
2018-10-19T13:46:41.559Z,37.10
2018-10-19T13:49:11.329Z,36.90
2018-10-19T13:51:40.917Z,36.90
2018-10-19T13:54:10.765Z,37.10
2018-10-19T13:56:40.255Z,37.00
2018-10-19T13:59:09.868Z,37.00
2018-10-19T14:01:39.348Z,37.40
2018-10-19T14:04:08.884Z,37.20
2018-10-19T14:06:38.779Z,37.30
2018-10-19T14:09:09.794Z,36.80
2018-10-19T14:11:39.807Z,36.80
2018-10-19T14:14:09.313Z,36.60
2018-10-19T14:16:38.803Z,36.50
2018-10-19T14:19:09.397Z,36.10
2018-10-19T14:21:38.924Z,36.40
2018-10-19T14:24:08.501Z,36.40
2018-10-19T14:26:38.086Z,36.80
2018-10-19T14:29:08.041Z,36.80
2018-10-19T14:31:37.620Z,37.00
2018-10-19T14:34:07.531Z,37.20
2018-10-19T14:36:37.056Z,37.20
2018-10-19T14:39:07.310Z,37.10
2018-10-19T14:41:36.835Z,37.10
2018-10-19T14:44:06.407Z,37.10
2018-10-19T14:46:35.902Z,37.50
2018-10-19T14:49:05.821Z,38.00
2018-10-19T14:51:35.287Z,38.20
2018-10-19T14:54:04.881Z,38.50
2018-10-19T14:56:34.353Z,38.90
2018-10-19T14:59:03.885Z,39.40
2018-10-19T15:01:33.442Z,39.50
2018-10-19T15:04:03.348Z,39.30
2018-10-19T15:06:32.897Z,39.50
2018-10-19T15:09:03.478Z,39.80
2018-10-19T15:11:33.285Z,39.90
2018-10-19T15:14:03.007Z,40.10
2018-10-19T15:16:32.546Z,40.20
2018-10-19T15:19:02.601Z,40.10
2018-10-19T15:21:32.078Z,40.10
2018-10-19T15:24:01.656Z,40.50
2018-10-19T15:26:31.230Z,40.50
2018-10-19T15:29:01.220Z,40.30
2018-10-19T15:31:30.740Z,40.20
2018-10-19T15:34:00.240Z,40.10
2018-10-19T15:36:29.819Z,40.40
2018-10-19T15:38:59.319Z,40.40
2018-10-19T15:41:28.822Z,40.70
2018-10-19T15:43:58.381Z,40.90
2018-10-19T15:46:27.949Z,41.10
2018-10-19T15:48:57.905Z,41.30
2018-10-19T15:51:27.428Z,41.50
2018-10-19T15:53:57.210Z,41.80
2018-10-19T15:56:26.790Z,42.00
2018-10-19T15:58:56.473Z,42.40
2018-10-19T16:01:26.018Z,42.90
2018-10-19T16:03:55.546Z,43.30
2018-10-19T16:06:25.465Z,43.50
2018-10-19T16:08:55.415Z,43.70
2018-10-19T16:11:24.916Z,44.00
2018-10-19T16:13:54.714Z,44.30
2018-10-19T16:16:24.280Z,44.70
2018-10-19T16:18:53.791Z,45.00
2018-10-19T16:21:23.351Z,45.40
2018-10-19T16:23:52.974Z,45.80
2018-10-19T16:26:23.004Z,47.50
2018-10-19T16:28:52.541Z,47.10
2018-10-19T16:31:22.051Z,47.30
2018-10-19T16:33:51.591Z,47.10
2018-10-19T16:36:21.201Z,47.50
2018-10-19T16:38:50.710Z,48.00
2018-10-19T16:41:20.241Z,49.10
2018-10-19T16:43:49.849Z,49.00
2018-10-19T16:46:19.857Z,49.30
2018-10-19T16:48:49.409Z,49.50
2018-10-19T16:51:18.902Z,49.70
2018-10-19T16:53:48.579Z,50.70
2018-10-19T16:56:18.397Z,50.70
2018-10-19T16:58:47.982Z,50.90
2018-10-19T17:01:17.493Z,51.10
2018-10-19T17:03:47.024Z,51.30
2018-10-19T17:06:16.711Z,51.50
2018-10-19T17:08:46.534Z,51.50
2018-10-19T17:11:16.651Z,51.80
2018-10-19T17:13:46.234Z,52.30
2018-10-19T17:16:16.137Z,52.50
2018-10-19T17:18:45.627Z,53.60
2018-10-19T17:21:15.159Z,53.10
2018-10-19T17:23:44.743Z,53.30
2018-10-19T17:26:14.353Z,53.60
2018-10-19T17:28:43.809Z,54.10
2018-10-19T17:31:13.332Z,54.70
2018-10-19T17:33:42.949Z,55.00
2018-10-19T17:36:12.786Z,55.50
2018-10-19T17:38:42.183Z,55.40
2018-10-19T17:41:11.765Z,55.50
2018-10-19T17:43:41.250Z,56.00
2018-10-19T17:46:11.246Z,55.80
2018-10-19T17:48:40.751Z,55.60
2018-10-19T17:51:10.270Z,55.80
2018-10-19T17:53:39.861Z,55.90
2018-10-19T17:56:09.415Z,56.20
2018-10-19T17:58:38.964Z,56.20
2018-10-19T18:01:08.962Z,56.70
2018-10-19T18:03:38.475Z,56.70
2018-10-19T18:06:08.111Z,57.10
2018-10-19T18:08:37.541Z,57.60
2018-10-19T18:11:07.064Z,57.90
2018-10-19T18:13:37.011Z,58.40
2018-10-19T18:16:06.567Z,58.80
2018-10-19T18:18:36.079Z,58.90
2018-10-19T18:21:05.897Z,58.50
2018-10-19T18:23:35.499Z,58.70
2018-10-19T18:26:05.144Z,58.80
2018-10-19T18:28:34.921Z,58.90
2018-10-19T18:31:04.802Z,59.00
2018-10-19T18:33:34.676Z,58.90
2018-10-19T18:36:04.271Z,58.80
2018-10-19T18:38:34.190Z,58.50
2018-10-19T18:41:04.142Z,58.90
2018-10-19T18:43:33.725Z,59.00
2018-10-19T18:46:03.244Z,59.20
2018-10-19T18:48:32.837Z,59.40
2018-10-19T18:51:02.397Z,59.60
2018-10-19T18:53:31.866Z,59.60
2018-10-19T18:56:01.498Z,59.60
2018-10-19T18:58:31.118Z,60.00
2018-10-19T19:01:00.679Z,60.30
2018-10-19T19:03:30.203Z,60.10
2018-10-19T19:06:00.302Z,60.60
2018-10-19T19:08:29.864Z,61.40
2018-10-19T19:10:59.458Z,61.80
2018-10-19T19:13:29.670Z,61.60
2018-10-19T19:15:59.775Z,62.20
2018-10-19T19:18:29.311Z,61.80
2018-10-19T19:20:58.850Z,62.00
2018-10-19T19:23:28.413Z,62.00
2018-10-19T19:26:03.298Z,61.90
2018-10-19T19:28:32.833Z,62.10
2018-10-19T19:31:02.379Z,62.50
2018-10-19T19:33:37.240Z,62.70
2018-10-19T19:36:06.749Z,62.70
2018-10-19T19:38:36.279Z,63.30
2018-10-19T19:41:11.302Z,62.70
2018-10-19T19:43:40.751Z,62.70
2018-10-19T19:46:10.779Z,62.70
2018-10-19T19:48:45.960Z,62.60
2018-10-19T19:51:15.558Z,62.60
2018-10-19T19:53:45.053Z,62.50
2018-10-19T19:56:14.665Z,62.40
2018-10-19T19:58:44.081Z,62.70
2018-10-19T20:01:13.915Z,62.80
2018-10-19T20:03:43.452Z,63.00
2018-10-19T20:06:13.099Z,63.30
2018-10-19T20:08:42.931Z,63.40
2018-10-19T20:11:12.507Z,63.80
2018-10-19T20:13:42.033Z,64.10
2018-10-19T20:16:11.615Z,64.20
2018-10-19T20:18:41.482Z,64.90
2018-10-19T20:21:11.084Z,64.40
2018-10-19T20:23:40.603Z,64.80
2018-10-19T20:26:10.154Z,64.90
2018-10-19T20:28:40.162Z,64.80
2018-10-19T20:31:09.773Z,65.00
2018-10-19T20:33:39.303Z,65.20
2018-10-19T20:36:09.100Z,65.20
2018-10-19T20:38:38.620Z,65.20
2018-10-19T20:41:08.174Z,65.30
2018-10-19T20:43:37.697Z,65.60
2018-10-19T20:46:07.272Z,65.50
2018-10-19T20:48:37.244Z,65.60
2018-10-19T20:51:06.771Z,65.60
2018-10-19T20:53:36.434Z,65.50
2018-10-19T20:56:05.939Z,66.10
2018-10-19T20:58:35.828Z,66.00
2018-10-19T21:01:05.497Z,66.40
2018-10-19T21:03:35.482Z,65.70
2018-10-19T21:06:05.275Z,65.10
2018-10-19T21:08:35.093Z,65.10
2018-10-19T21:11:05.106Z,65.00
2018-10-19T21:13:34.720Z,65.20
2018-10-19T21:16:04.200Z,65.40
2018-10-19T21:18:33.857Z,65.70
2018-10-19T21:21:03.433Z,65.80
2018-10-19T21:23:32.966Z,65.80
2018-10-19T21:26:02.867Z,65.30
2018-10-19T21:28:32.322Z,65.40
2018-10-19T21:31:01.904Z,66.10
2018-10-19T21:33:31.424Z,66.00
2018-10-19T21:36:01.055Z,66.00
2018-10-19T21:38:30.645Z,66.50
2018-10-19T21:41:00.184Z,65.80
2018-10-19T21:43:30.048Z,66.50
2018-10-19T21:45:59.962Z,65.70
2018-10-19T21:48:29.470Z,66.00
2018-10-19T21:50:59.031Z,65.60
2018-10-19T21:53:28.512Z,65.90
2018-10-19T21:55:58.027Z,66.20
2018-10-19T21:58:28.216Z,66.10
2018-10-19T22:00:57.753Z,66.20
2018-10-19T22:03:27.221Z,66.20
2018-10-19T22:05:56.723Z,66.30
2018-10-19T22:08:26.246Z,66.40
2018-10-19T22:10:56.044Z,66.80
2018-10-19T22:13:25.588Z,67.50
2018-10-19T22:15:55.048Z,66.80
2018-10-19T22:18:25.134Z,67.70
2018-10-19T22:20:54.667Z,67.90
2018-10-19T22:23:24.629Z,68.10
2018-10-19T22:25:54.169Z,68.20
2018-10-19T22:28:23.716Z,68.30
2018-10-19T22:30:53.605Z,68.20
2018-10-19T22:33:23.491Z,68.10
2018-10-19T22:35:52.980Z,68.30
2018-10-19T22:38:22.916Z,68.90
2018-10-19T22:40:52.411Z,68.40
2018-10-19T22:43:21.948Z,68.00
2018-10-19T22:45:51.464Z,67.70
2018-10-19T22:48:20.917Z,67.50
2018-10-19T22:50:50.853Z,68.10
2018-10-19T22:53:20.349Z,68.20
2018-10-19T22:55:50.208Z,68.20
2018-10-19T22:58:19.827Z,68.30
2018-10-19T23:00:49.289Z,68.20
2018-10-19T23:03:18.810Z,68.10
2018-10-19T23:05:48.718Z,67.90
2018-10-19T23:08:18.238Z,67.60
2018-10-19T23:10:48.192Z,68.00
2018-10-19T23:13:17.683Z,68.70
2018-10-19T23:15:47.757Z,68.60
2018-10-19T23:18:17.692Z,68.50
2018-10-19T23:20:47.611Z,68.50
2018-10-19T23:23:17.472Z,68.40
2018-10-19T23:25:47.059Z,68.70
2018-10-19T23:28:17.114Z,68.40
2018-10-19T23:30:46.662Z,68.50
2018-10-19T23:33:16.224Z,68.70
2018-10-19T23:35:45.768Z,68.70
2018-10-19T23:38:15.663Z,68.60
2018-10-19T23:40:45.162Z,68.70
2018-10-19T23:43:14.829Z,68.20
2018-10-19T23:45:44.358Z,68.50
2018-10-19T23:48:13.870Z,68.30
2018-10-19T23:50:43.486Z,68.50
2018-10-19T23:53:13.368Z,68.60
2018-10-19T23:55:43.288Z,68.40
2018-10-19T23:58:13.146Z,68.60
